Time;durP1;ratioP1;P1;durP2;ratioP2;P2;SDS_P1;SDS_P2;PMS_P1;PMS_P2;Temp;Humidity;BMP_temperature;BMP_pressure;BME280_temperature;BME280_humidity;BME280_pressure;Samples;Min_cycle;Max_cycle;Signal;HPM_P1;HPM_P2
2023/06/05 00:01:43;;;;;;;175.40;61.83;;;;;;;18.74;47.79;102160.25;5029727;28;20033;-71
2023/06/05 00:04:08;;;;;;;187.27;63.50;;;;;;;18.73;47.48;102164.69;5016328;28;20028;-72
2023/06/05 00:06:33;;;;;;;217.65;68.88;;;;;;;18.73;47.28;102167.34;5051162;22;20344;-69
2023/06/05 00:08:59;;;;;;;178.95;63.00;;;;;;;18.71;47.71;102165.63;5020751;28;20065;-69
2023/06/05 00:11:25;;;;;;;175.88;62.63;;;;;;;18.71;47.82;102166.50;5019239;28;20029;-70
2023/06/05 00:13:50;;;;;;;174.45;61.92;;;;;;;18.69;47.88;102157.75;5024569;28;20415;-70
2023/06/05 00:16:16;;;;;;;176.48;63.17;;;;;;;18.70;47.56;102166.53;5016355;28;20030;-70
2023/06/05 00:18:43;;;;;;;175.55;62.70;;;;;;;18.69;48.02;102164.78;4995179;28;20522;-70
2023/06/05 00:21:09;;;;;;;168.32;62.05;;;;;;;18.69;47.54;102178.91;4979137;28;20030;-70
2023/06/05 00:23:35;;;;;;;172.38;61.47;;;;;;;18.68;47.72;102171.88;4995429;28;20395;-70
2023/06/05 00:26:00;;;;;;;174.35;62.30;;;;;;;18.67;48.14;102164.84;5012077;28;20046;-70
2023/06/05 00:28:26;;;;;;;173.40;61.50;;;;;;;18.67;47.88;102167.50;5005836;28;20110;-70
2023/06/05 00:30:51;;;;;;;179.70;63.53;;;;;;;18.66;47.75;102163.09;4997864;28;20123;-70
2023/06/05 00:33:16;;;;;;;171.25;62.33;;;;;;;18.65;47.64;102177.25;4996073;28;20566;-70
2023/06/05 00:35:42;;;;;;;175.38;62.67;;;;;;;18.65;48.05;102174.63;4993487;28;20026;-69
2023/06/05 00:38:08;;;;;;;176.00;62.78;;;;;;;18.65;47.77;102171.97;5004195;28;20026;-70
2023/06/05 00:40:33;;;;;;;175.10;61.70;;;;;;;18.64;47.55;102172.88;5014627;28;20029;-70
2023/06/05 00:42:58;;;;;;;185.73;65.07;;;;;;;18.63;48.21;102168.47;5001224;28;20037;-70
2023/06/05 00:45:24;;;;;;;176.30;62.47;;;;;;;18.62;47.99;102177.31;4995644;28;20088;-70
2023/06/05 00:47:49;;;;;;;186.70;65.63;;;;;;;18.62;48.40;102177.31;5000848;28;20065;-70
2023/06/05 00:50:15;;;;;;;176.13;63.22;;;;;;;18.61;48.42;102170.31;5010779;28;20038;-70
2023/06/05 00:52:42;;;;;;;175.10;63.20;;;;;;;18.61;47.83;102175.59;5003789;28;20056;-70
2023/06/05 00:55:08;;;;;;;175.35;63.90;;;;;;;18.61;47.62;102174.72;4991296;28;20041;-70
2023/06/05 00:57:34;;;;;;;175.57;63.97;;;;;;;18.60;48.31;102173.88;5003745;28;20102;-71
2023/06/05 01:00:06;;;;;;;178.68;64.10;;;;;;;18.59;47.59;102167.69;5027932;28;20033;-70
2023/06/05 01:02:34;;;;;;;178.60;64.85;;;;;;;18.59;47.56;102165.03;4989035;28;20126;-70
2023/06/05 01:04:59;;;;;;;176.48;63.60;;;;;;;18.59;48.23;102170.34;5007645;28;20069;-69
2023/06/05 01:07:25;;;;;;;178.02;63.35;;;;;;;18.58;48.30;102160.69;5016269;28;20054;-71
2023/06/05 01:09:50;;;;;;;190.23;65.93;;;;;;;18.58;47.79;102160.69;4992154;28;20407;-71
2023/06/05 01:12:20;;;;;;;168.38;61.40;;;;;;;18.59;47.82;102161.53;5020717;28;20041;-70
2023/06/05 01:14:48;;;;;;;175.02;62.25;;;;;;;18.57;47.80;102158.94;5012286;28;20029;-70
2023/06/05 01:17:13;;;;;;;175.00;62.28;;;;;;;18.57;48.24;102158.06;4988667;28;20026;-71
2023/06/05 01:19:40;;;;;;;169.15;61.28;;;;;;;18.55;47.72;102155.44;5008256;28;20242;-70
2023/06/05 01:22:05;;;;;;;177.13;62.38;;;;;;;18.54;48.09;102156.38;4993003;28;20057;-71
2023/06/05 01:24:32;;;;;;;176.60;64.18;;;;;;;18.55;48.31;102154.59;4990484;28;20495;-71
2023/06/05 01:27:00;;;;;;;177.10;64.43;;;;;;;18.56;47.53;102156.34;4976151;28;20054;-70
2023/06/05 01:29:35;;;;;;;177.40;64.80;;;;;;;18.55;48.40;102149.28;4992342;28;20030;-71
2023/06/05 01:32:06;;;;;;;182.70;65.00;;;;;;;18.54;47.98;102150.19;4993065;28;20475;-70
2023/06/05 01:34:34;;;;;;;175.52;64.22;;;;;;;18.53;48.02;102143.19;4994873;28;20026;-70
2023/06/05 01:37:00;;;;;;;177.73;64.43;;;;;;;18.53;47.96;102152.00;5008687;28;20031;-70
2023/06/05 01:39:26;;;;;;;177.23;64.13;;;;;;;18.53;48.37;102145.84;4992650;28;20080;-71
2023/06/05 01:41:54;;;;;;;175.68;62.97;;;;;;;18.51;48.12;102147.63;4976144;28;20433;-70
2023/06/05 01:44:20;;;;;;;177.50;64.68;;;;;;;18.51;48.01;102145.00;4996164;28;20072;-70
2023/06/05 01:46:45;;;;;;;189.25;66.20;;;;;;;18.51;48.27;102145.00;4989818;28;20491;-70
2023/06/05 01:49:10;;;;;;;176.30;64.13;;;;;;;18.50;48.43;102140.59;5008448;28;20029;-70
2023/06/05 01:51:36;;;;;;;178.25;64.82;;;;;;;18.49;48.31;102145.03;4991300;28;20036;-70
2023/06/05 01:54:01;;;;;;;174.48;63.38;;;;;;;18.50;47.79;102145.91;4996329;28;20057;-70
2023/06/05 01:56:30;;;;;;;175.95;63.35;;;;;;;18.49;48.46;102144.19;4991475;28;20026;-70
2023/06/05 01:58:55;;;;;;;180.27;65.43;;;;;;;18.49;48.15;102141.53;4990699;28;20033;-70
2023/06/05 02:01:22;;;;;;;179.30;64.25;;;;;;;18.49;48.16;102138.91;5005687;28;20034;-70
2023/06/05 02:03:49;;;;;;;177.40;64.60;;;;;;;18.46;48.26;102136.31;4997545;28;20038;-70
2023/06/05 02:06:16;;;;;;;181.98;66.18;;;;;;;18.46;48.13;102136.31;5002039;28;20045;-70
2023/06/05 02:08:42;;;;;;;176.60;63.42;;;;;;;18.46;48.49;102131.00;4993574;28;20030;-71
2023/06/05 02:11:10;;;;;;;177.13;65.13;;;;;;;18.45;48.34;102131.91;4991092;28;20022;-71
2023/06/05 02:13:37;;;;;;;174.60;63.72;;;;;;;18.45;48.61;102131.91;4998203;28;20018;-71
2023/06/05 02:16:03;;;;;;;178.50;63.03;;;;;;;18.44;48.27;102131.06;4999344;28;20029;-71
2023/06/05 02:18:29;;;;;;;175.80;64.35;;;;;;;18.44;48.44;102130.19;4978655;28;20037;-70
2023/06/05 02:20:57;;;;;;;175.50;63.33;;;;;;;18.44;48.27;102131.06;4992582;28;20033;-70
2023/06/05 02:23:23;;;;;;;183.85;64.97;;;;;;;18.42;48.25;102125.81;4992433;28;20030;-70
2023/06/05 02:25:48;;;;;;;183.90;64.78;;;;;;;18.42;48.21;102133.75;4981684;28;20037;-71
2023/06/05 02:28:15;;;;;;;183.45;65.05;;;;;;;18.41;48.65;102126.72;4988275;28;20031;-70
2023/06/05 02:30:44;;;;;;;176.32;64.65;;;;;;;18.41;48.20;102126.72;4990776;28;20404;-72
2023/06/05 02:33:10;;;;;;;186.95;65.60;;;;;;;18.42;48.11;102127.59;4997617;28;20120;-70
2023/06/05 02:35:36;;;;;;;177.30;64.28;;;;;;;18.40;48.60;102124.97;4996269;28;20026;-70
2023/06/05 02:38:04;;;;;;;179.40;65.60;;;;;;;18.41;48.04;102117.91;5006428;28;20471;-70
2023/06/05 02:40:30;;;;;;;177.15;64.25;;;;;;;18.40;48.26;102116.19;4991155;28;20034;-70
2023/06/05 02:42:55;;;;;;;185.75;65.20;;;;;;;18.38;48.40;102110.94;4996894;28;20040;-70
2023/06/05 02:45:20;;;;;;;173.80;63.50;;;;;;;18.37;48.39;102111.84;4990442;28;20105;-70
2023/06/05 02:47:46;;;;;;;176.40;63.10;;;;;;;18.37;48.59;102111.84;5006101;28;20117;-71
2023/06/05 02:50:12;;;;;;;178.60;65.00;;;;;;;18.37;48.51;102109.19;4991181;28;20058;-70
2023/06/05 02:52:39;;;;;;;176.43;64.00;;;;;;;18.37;48.37;102117.13;4995513;28;20021;-72
2023/06/05 02:55:05;;;;;;;173.73;63.28;;;;;;;18.36;48.63;102109.22;5001420;28;20030;-70
2023/06/05 02:57:33;;;;;;;179.68;63.65;;;;;;;18.35;48.35;102104.84;5015972;28;20489;-72
2023/06/05 02:59:58;;;;;;;176.45;64.35;;;;;;;18.36;48.50;102107.44;4990912;28;20034;-70
2023/06/05 03:02:27;;;;;;;178.65;63.53;;;;;;;18.36;48.21;102109.22;4993465;28;20096;-71
2023/06/05 03:04:53;;;;;;;178.30;63.53;;;;;;;18.37;48.07;102109.19;5000852;28;20032;-70
2023/06/05 03:07:19;;;;;;;174.30;62.55;;;;;;;18.35;48.91;102108.38;4999638;28;20403;-69
2023/06/05 03:09:45;;;;;;;178.85;64.05;;;;;;;18.36;48.52;102101.31;4990690;28;20455;-70
2023/06/05 03:12:10;;;;;;;178.63;63.92;;;;;;;18.36;48.46;102096.00;4991081;28;20026;-70
2023/06/05 03:14:35;;;;;;;177.90;63.13;;;;;;;18.35;47.93;102097.78;4993836;28;20105;-70
2023/06/05 03:17:01;;;;;;;179.57;64.03;;;;;;;18.36;48.19;102096.00;5014898;28;20049;-70
2023/06/05 03:19:26;;;;;;;176.60;64.20;;;;;;;18.36;48.17;102096.88;4994326;28;20459;-70
2023/06/05 03:21:53;;;;;;;170.25;63.28;;;;;;;18.37;48.66;102097.75;5011083;28;20018;-70
2023/06/05 03:24:19;;;;;;;187.05;65.85;;;;;;;18.36;48.33;102094.22;5004986;28;20033;-70
2023/06/05 03:26:45;;;;;;;182.07;64.65;;;;;;;18.37;48.12;102093.31;4989539;28;20018;-70
2023/06/05 03:29:10;;;;;;;176.43;63.28;;;;;;;18.37;48.30;102097.75;4996574;28;20052;-70
2023/06/05 03:31:36;;;;;;;180.20;65.93;;;;;;;18.36;48.03;102099.50;4994481;28;20037;-71
2023/06/05 03:34:03;;;;;;;181.18;65.90;;;;;;;18.38;48.53;102099.50;5002492;28;20384;-70
2023/06/05 03:36:29;;;;;;;170.27;63.30;;;;;;;18.37;48.32;102095.97;4998302;28;20523;-71
2023/06/05 03:38:55;;;;;;;179.00;64.50;;;;;;;18.39;47.96;102102.09;4976822;28;20062;-70
2023/06/05 03:41:21;;;;;;;177.93;64.82;;;;;;;18.40;47.85;102098.53;4993643;28;20032;-70
2023/06/05 03:43:46;;;;;;;176.40;63.90;;;;;;;18.40;48.34;102098.53;4993186;28;20054;-71
2023/06/05 03:46:18;;;;;;;177.50;63.92;;;;;;;18.41;48.53;102100.25;4980624;28;20030;-70
2023/06/05 03:48:43;;;;;;;176.93;64.60;;;;;;;18.42;47.81;102099.34;4992847;28;20026;-70
2023/06/05 03:51:09;;;;;;;177.70;64.75;;;;;;;18.45;48.09;102100.16;4994233;28;20033;-72
2023/06/05 03:53:34;;;;;;;179.30;64.85;;;;;;;18.45;47.87;102092.22;5002134;28;20535;-70
2023/06/05 03:56:00;;;;;;;178.82;63.65;;;;;;;18.45;48.09;102098.41;4986382;28;20085;-70
2023/06/05 03:58:26;;;;;;;175.65;63.08;;;;;;;18.46;48.27;102096.63;5002329;28;20439;-70
2023/06/05 04:00:53;;;;;;;180.63;64.10;;;;;;;18.48;48.17;102095.69;4977447;28;20037;-70
2023/06/05 04:03:20;;;;;;;183.30;64.90;;;;;;;18.49;48.47;102104.50;4999823;28;20052;-70
2023/06/05 04:05:45;;;;;;;175.50;63.83;;;;;;;18.49;47.74;102096.56;4993087;28;20061;-70
2023/06/05 04:08:11;;;;;;;183.93;65.47;;;;;;;18.50;47.86;102103.56;4994418;28;20169;-70
2023/06/05 04:10:37;;;;;;;180.35;65.65;;;;;;;18.51;48.20;102105.31;4995684;28;20113;-70
2023/06/05 04:13:03;;;;;;;178.63;65.22;;;;;;;18.52;47.80;102101.75;4995921;28;20026;-71
2023/06/05 04:15:28;;;;;;;180.70;64.13;;;;;;;18.54;47.84;102105.22;4983851;28;20044;-70
2023/06/05 04:17:54;;;;;;;182.13;65.28;;;;;;;18.55;47.93;102112.25;5001861;28;20476;-70
2023/06/05 04:20:20;;;;;;;177.10;65.10;;;;;;;18.55;47.44;102114.91;4992726;28;20484;-71
2023/06/05 04:22:45;;;;;;;177.57;64.80;;;;;;;18.58;47.47;102112.16;4978762;28;20065;-70
2023/06/05 04:25:12;;;;;;;179.27;64.47;;;;;;;18.57;47.92;102108.66;4996198;28;20046;-71
2023/06/05 04:27:42;;;;;;;179.10;65.30;;;;;;;18.58;47.52;102107.75;4992164;28;20015;-70
2023/06/05 04:30:09;;;;;;;189.38;65.63;;;;;;;18.59;47.85;102108.63;4990614;28;20045;-70
2023/06/05 04:32:37;;;;;;;182.63;65.50;;;;;;;18.61;47.62;102112.09;4977253;28;20479;-70
2023/06/05 04:35:03;;;;;;;178.10;65.13;;;;;;;18.61;47.66;102112.09;5000348;28;20030;-70
2023/06/05 04:37:28;;;;;;;178.77;64.10;;;;;;;18.63;47.80;102112.91;4991380;28;20530;-70
2023/06/05 04:39:54;;;;;;;182.52;65.28;;;;;;;18.64;47.48;102105.81;4992007;28;20056;-69
2023/06/05 04:42:21;;;;;;;177.70;64.28;;;;;;;18.66;47.89;102110.16;5014058;28;20022;-70
2023/06/05 04:44:56;;;;;;;177.00;65.60;;;;;;;18.67;47.33;102103.97;4993841;28;20475;-70
2023/06/05 04:47:21;;;;;;;178.48;65.80;;;;;;;18.70;47.06;102101.22;4976040;28;20022;-70
2023/06/05 04:49:49;;;;;;;182.40;64.97;;;;;;;18.71;47.69;102107.41;4992431;28;20072;-70
2023/06/05 04:52:14;;;;;;;183.48;65.22;;;;;;;18.72;47.81;102106.50;4998791;28;20511;-70
2023/06/05 04:54:39;;;;;;;179.57;65.57;;;;;;;18.73;47.63;102101.16;4992880;28;20030;-70
2023/06/05 04:57:05;;;;;;;174.27;64.43;;;;;;;18.77;47.41;102106.38;4993427;28;20129;-70
2023/06/05 04:59:32;;;;;;;176.02;63.67;;;;;;;18.78;47.24;102111.63;5006906;28;20030;-70
2023/06/05 05:01:57;;;;;;;176.95;63.97;;;;;;;18.80;47.55;102104.50;4973360;28;20407;-70
2023/06/05 05:04:23;;;;;;;183.98;64.90;;;;;;;18.81;46.87;102108.00;4991850;28;20034;-70
2023/06/05 05:06:51;;;;;;;181.10;65.90;;;;;;;18.82;47.02;102105.31;4975070;28;20023;-70
2023/06/05 05:09:16;;;;;;;177.10;64.47;;;;;;;18.84;47.06;102107.91;4990028;28;20121;-70
2023/06/05 05:11:42;;;;;;;176.93;64.78;;;;;;;18.85;47.40;102107.88;4999386;28;20109;-70
2023/06/05 05:14:07;;;;;;;195.93;66.57;;;;;;;18.86;47.16;102101.69;4996198;28;20022;-69
2023/06/05 05:16:32;;;;;;;179.88;64.95;;;;;;;18.88;46.82;102099.00;4976455;28;20522;-70
2023/06/05 05:18:58;;;;;;;190.32;66.20;;;;;;;18.90;47.26;102099.84;4996381;28;20026;-70
2023/06/05 05:21:23;;;;;;;178.40;64.82;;;;;;;18.94;46.78;102097.97;4994864;28;20456;-70
2023/06/05 05:23:48;;;;;;;191.88;66.78;;;;;;;18.95;47.18;102105.88;4994157;28;20656;-69
2023/06/05 05:26:14;;;;;;;179.35;64.00;;;;;;;18.96;46.91;102104.09;4997745;28;20033;-69
2023/06/05 05:28:39;;;;;;;178.55;64.72;;;;;;;18.98;46.40;102102.25;4997283;28;20494;-69
2023/06/05 05:31:05;;;;;;;187.93;66.13;;;;;;;18.99;46.67;102112.81;4999129;28;20391;-70
2023/06/05 05:33:30;;;;;;;182.00;64.75;;;;;;;19.00;46.39;102111.88;4999465;28;20057;-70
2023/06/05 05:35:56;;;;;;;194.93;67.72;;;;;;;19.02;46.39;102112.72;4996536;28;20149;-69
2023/06/05 05:38:21;;;;;;;175.90;64.53;;;;;;;19.04;46.60;102110.88;5024065;28;20084;-70
2023/06/05 05:40:46;;;;;;;179.98;64.03;;;;;;;19.06;46.23;102106.44;4994110;28;20030;-70
2023/06/05 05:43:12;;;;;;;189.30;65.25;;;;;;;19.07;46.16;102113.47;5007580;28;20046;-69
2023/06/05 05:45:39;;;;;;;182.15;65.30;;;;;;;19.12;46.41;102107.16;4974663;28;20029;-70
2023/06/05 05:48:05;;;;;;;185.82;65.35;;;;;;;19.14;45.86;102115.91;4992433;28;20109;-70
2023/06/05 05:50:30;;;;;;;181.27;65.70;;;;;;;19.15;46.39;102112.38;4981875;28;20432;-70
2023/06/05 05:52:55;;;;;;;186.15;65.57;;;;;;;19.17;46.43;102115.81;4993857;28;20439;-70
2023/06/05 05:55:20;;;;;;;181.63;64.38;;;;;;;19.18;46.41;102114.91;5007034;28;20045;-70
2023/06/05 05:57:46;;;;;;;179.27;64.13;;;;;;;19.20;45.97;102106.00;4999937;28;20036;-70
2023/06/05 06:00:12;;;;;;;203.10;66.63;;;;;;;19.27;45.89;102112.00;4976848;28;20026;-71
2023/06/05 06:02:41;;;;;;;175.57;62.97;;;;;;;19.32;45.71;102115.38;4973338;28;20377;-70
2023/06/05 06:05:07;;;;;;;182.77;65.07;;;;;;;19.35;45.88;102112.63;4996999;28;20096;-70
2023/06/05 06:07:32;;;;;;;183.93;63.58;;;;;;;19.45;45.55;102117.66;5009942;22;20528;-72
2023/06/05 06:09:58;;;;;;;178.85;63.03;;;;;;;19.51;45.11;102120.97;5017699;28;20078;-71
2023/06/05 06:12:23;;;;;;;178.45;62.17;;;;;;;19.60;45.69;102114.50;5010864;28;20031;-72
2023/06/05 06:14:49;;;;;;;184.82;64.97;;;;;;;19.70;45.04;102121.25;4990680;28;20483;-73
2023/06/05 06:17:15;;;;;;;184.75;63.65;;;;;;;19.86;44.53;102120.78;4989676;28;20033;-71
2023/06/05 06:19:42;;;;;;;174.52;61.88;;;;;;;20.35;43.94;102113.81;4985698;28;20050;-73
2023/06/05 06:22:13;;;;;;;184.05;63.17;;;;;;;21.03;42.25;102111.41;4986882;28;20018;-73
2023/06/05 06:24:39;;;;;;;174.02;62.42;;;;;;;21.66;41.24;102112.56;4987587;28;20031;-73
2023/06/05 06:27:05;;;;;;;183.80;65.03;;;;;;;22.12;40.48;102119.47;4985212;28;20546;-72
2023/06/05 06:29:31;;;;;;;194.57;65.95;;;;;;;22.47;39.57;102118.94;4981694;28;20034;-73
2023/06/05 06:31:56;;;;;;;183.90;64.07;;;;;;;22.77;38.47;102111.38;4990150;28;20127;-70
2023/06/05 06:34:22;;;;;;;185.77;64.18;;;;;;;23.04;38.11;102112.81;4975127;28;20027;-73
2023/06/05 06:36:47;;;;;;;192.20;64.95;;;;;;;23.28;37.37;102110.84;4984914;28;20484;-73
2023/06/05 06:39:12;;;;;;;190.40;64.57;;;;;;;23.48;37.17;102109.91;4984604;28;20104;-74
2023/06/05 06:41:38;;;;;;;181.77;63.45;;;;;;;23.66;37.16;102105.47;4990663;28;20439;-75
2023/06/05 06:44:04;;;;;;;182.65;64.05;;;;;;;23.83;36.20;102112.63;4989902;28;20455;-75
2023/06/05 06:46:30;;;;;;;183.40;62.88;;;;;;;24.02;35.97;102112.59;4991855;28;20022;-74
2023/06/05 06:48:55;;;;;;;187.45;64.50;;;;;;;24.17;35.85;102104.75;4984043;28;20030;-74
2023/06/05 06:51:22;;;;;;;185.18;65.45;;;;;;;24.33;35.81;102108.34;4985456;28;20026;-75
2023/06/05 06:53:47;;;;;;;179.65;64.63;;;;;;;24.50;35.66;102106.59;4991491;28;20034;-76
2023/06/05 06:56:15;;;;;;;179.00;64.15;;;;;;;24.65;34.43;102105.81;4972924;28;20033;-75
2023/06/05 06:58:40;;;;;;;180.20;64.15;;;;;;;24.80;34.36;102110.34;4969810;28;20026;-73
2023/06/05 07:01:06;;;;;;;181.75;63.70;;;;;;;24.98;34.37;102102.25;4988011;28;20093;-74
2023/06/05 07:03:31;;;;;;;179.82;64.43;;;;;;;25.18;34.55;102097.59;4987612;28;20089;-75
2023/06/05 07:05:56;;;;;;;180.07;64.53;;;;;;;25.27;34.01;102105.97;4981589;28;20444;-73
2023/06/05 07:08:22;;;;;;;184.32;65.75;;;;;;;25.43;33.65;102106.00;4979911;28;20535;-75
2023/06/05 07:10:47;;;;;;;184.23;65.53;;;;;;;25.57;33.63;102107.03;4988093;28;20073;-74
2023/06/05 07:13:12;;;;;;;178.98;64.00;;;;;;;25.63;33.80;102110.22;4985920;28;20177;-73
2023/06/05 07:15:38;;;;;;;183.05;65.13;;;;;;;25.81;33.38;102113.63;4987363;28;20546;-74
2023/06/05 07:18:03;;;;;;;180.45;65.55;;;;;;;26.02;32.76;102110.66;4987628;28;20058;-74
2023/06/05 07:20:28;;;;;;;184.10;65.60;;;;;;;26.08;32.75;102110.31;4990159;28;20034;-74
2023/06/05 07:22:54;;;;;;;177.45;65.13;;;;;;;26.30;32.41;102114.34;4973653;28;20147;-75
2023/06/05 07:25:22;;;;;;;185.68;65.35;;;;;;;26.47;32.22;102111.50;4973781;28;20057;-75
2023/06/05 07:27:48;;;;;;;191.88;67.65;;;;;;;26.61;31.43;102107.13;4988328;28;20510;-75
2023/06/05 07:30:13;;;;;;;184.18;66.43;;;;;;;26.72;31.55;102109.16;4988824;28;20085;-75
2023/06/05 07:32:40;;;;;;;178.13;64.63;;;;;;;26.88;31.49;102104.56;4991148;28;20034;-75
2023/06/05 07:35:07;;;;;;;177.73;65.78;;;;;;;26.98;31.23;102112.88;4990288;28;20390;-75
2023/06/05 07:37:32;;;;;;;178.38;65.43;;;;;;;27.10;31.04;102097.81;4992049;28;20400;-75
2023/06/05 07:39:57;;;;;;;177.38;65.10;;;;;;;27.26;30.84;102103.91;4991215;28;20030;-75
2023/06/05 07:42:23;;;;;;;173.77;64.65;;;;;;;27.40;30.20;102105.72;4991131;28;20030;-74
2023/06/05 07:44:48;;;;;;;181.35;67.03;;;;;;;27.49;30.56;102105.13;4990757;28;20026;-74
2023/06/05 07:47:13;;;;;;;183.13;67.70;;;;;;;27.48;30.32;102102.53;4991052;28;20030;-75
2023/06/05 07:49:39;;;;;;;178.57;66.03;;;;;;;27.58;30.04;102092.03;4990358;28;20484;-75
2023/06/05 07:52:04;;;;;;;172.80;64.45;;;;;;;27.80;30.28;102092.34;4991965;28;20019;-75
2023/06/05 07:54:29;;;;;;;183.65;67.18;;;;;;;27.89;30.03;102100.72;4990651;28;20022;-75
2023/06/05 07:56:57;;;;;;;177.88;65.55;;;;;;;27.90;30.03;102097.94;4974577;28;20027;-75
2023/06/05 07:59:27;;;;;;;177.07;64.45;;;;;;;28.05;29.34;102103.28;4991162;28;20472;-75
2023/06/05 08:01:53;;;;;;;177.75;66.28;;;;;;;28.10;29.60;102104.69;4990574;28;20077;-74
2023/06/05 08:04:19;;;;;;;228.10;74.68;;;;;;;28.02;29.50;102098.97;4989953;28;20480;-75
2023/06/05 08:06:45;;;;;;;180.07;66.93;;;;;;;28.18;29.61;102096.06;4992438;28;20591;-74
2023/06/05 08:09:10;;;;;;;181.82;67.75;;;;;;;28.03;30.10;102097.97;4983644;28;20022;-74
2023/06/05 08:11:37;;;;;;;199.77;68.57;;;;;;;28.05;29.96;102098.75;4989748;28;20018;-73
2023/06/05 08:14:03;;;;;;;179.30;66.60;;;;;;;28.15;29.79;102097.16;4988001;28;20030;-74
2023/06/05 08:16:29;;;;;;;177.40;66.93;;;;;;;28.24;29.45;102089.44;5013642;28;20034;-74
2023/06/05 08:18:54;;;;;;;177.07;64.53;;;;;;;28.31;29.78;102090.72;4997168;28;20049;-74
2023/06/05 08:21:20;;;;;;;181.60;67.18;;;;;;;28.47;28.97;102085.97;4987875;28;20501;-74
2023/06/05 08:23:45;;;;;;;178.60;66.90;;;;;;;28.64;28.72;102092.00;4994493;28;20037;-74
2023/06/05 08:26:11;;;;;;;176.88;66.55;;;;;;;28.70;28.87;102088.03;5005893;28;20032;-74
2023/06/05 08:28:40;;;;;;;174.95;65.43;;;;;;;28.67;28.68;102087.28;5010112;28;20026;-76
2023/06/05 08:31:07;;;;;;;178.10;65.32;;;;;;;28.80;28.91;102087.25;4994163;28;20038;-75
2023/06/05 08:33:35;;;;;;;178.23;66.15;;;;;;;28.86;28.65;102079.72;4993505;28;20108;-75
2023/06/05 08:36:01;;;;;;;183.65;76.45;;;;;;;28.95;28.63;102079.06;4990469;28;20026;-74
2023/06/05 08:38:28;;;;;;;179.95;67.65;;;;;;;29.10;28.09;102080.63;5010130;28;20448;-76
2023/06/05 08:41:00;;;;;;;176.85;65.53;;;;;;;29.29;27.61;102082.84;4995021;28;20057;-75
2023/06/05 08:43:26;;;;;;;170.73;66.30;;;;;;;29.29;27.84;102077.47;4998452;28;20014;-74
2023/06/05 08:45:54;;;;;;;176.20;66.53;;;;;;;29.45;27.21;102070.91;4995187;28;20396;-75
2023/06/05 08:48:20;;;;;;;179.90;67.30;;;;;;;29.54;27.52;102069.38;5013083;28;20028;-74
2023/06/05 08:50:47;;;;;;;190.32;67.75;;;;;;;29.62;27.15;102067.81;5011282;28;20030;-74
2023/06/05 08:53:16;;;;;;;179.20;65.68;;;;;;;29.72;26.96;102067.97;4984734;28;20030;-74
2023/06/05 08:55:42;;;;;;;177.30;66.03;;;;;;;29.81;27.16;102064.56;5001583;28;20032;-74
2023/06/05 08:58:07;;;;;;;180.02;67.82;;;;;;;29.88;26.44;102066.84;4992869;28;20026;-74
2023/06/05 09:00:32;;;;;;;171.38;65.72;;;;;;;29.80;27.23;102065.53;4996402;28;20238;-74
2023/06/05 09:02:59;;;;;;;175.77;66.07;;;;;;;30.02;26.86;102061.22;5001957;28;20432;-75
2023/06/05 09:05:24;;;;;;;179.98;66.18;;;;;;;29.93;26.89;102060.13;5000235;28;20022;-74
2023/06/05 09:07:50;;;;;;;179.30;68.00;;;;;;;29.79;26.82;102057.59;4991866;28;20026;-74
2023/06/05 09:10:29;;;;;;;183.80;68.32;;;;;;;29.76;26.87;102058.69;5007323;28;20373;-78
2023/06/05 09:12:59;;;;;;;179.35;69.30;;;;;;;29.76;26.73;102061.38;5004818;28;20029;-73
2023/06/05 09:15:27;;;;;;;177.85;67.72;;;;;;;30.00;26.62;102060.50;4995207;28;20057;-73
2023/06/05 09:18:25;;;;;;;170.13;65.72;;;;;;;30.12;26.52;102059.53;4994048;28;20098;-73
2023/06/05 09:20:50;;;;;;;182.45;68.15;;;;;;;30.13;26.65;102055.00;4988058;28;20477;-73
2023/06/05 09:23:27;;;;;;;178.32;67.30;;;;;;;30.06;26.53;102051.94;5006402;28;20124;-74
2023/06/05 09:25:54;;;;;;;177.40;67.00;;;;;;;30.10;26.17;102050.72;4988269;28;20034;-73
2023/06/05 09:28:20;;;;;;;177.05;67.32;;;;;;;30.16;26.63;102044.84;4993123;28;20030;-74
2023/06/05 09:30:56;;;;;;;177.85;67.30;;;;;;;30.13;26.24;102050.50;5001114;28;20079;-73
2023/06/05 09:33:23;;;;;;;188.18;69.22;;;;;;;30.08;26.56;102057.19;5011514;28;20033;-73
2023/06/05 09:36:04;;;;;;;175.98;66.70;;;;;;;29.93;27.02;102045.81;4969419;28;20026;-73
2023/06/05 09:38:30;;;;;;;183.95;68.60;;;;;;;29.64;27.03;102044.34;4986332;28;20096;-73
2023/06/05 09:41:09;;;;;;;177.43;67.53;;;;;;;29.71;27.35;102044.72;4993453;28;20064;-72
2023/06/05 09:43:36;;;;;;;177.95;66.88;;;;;;;29.64;27.28;102051.53;4995324;28;20026;-74
2023/06/05 09:46:15;;;;;;;184.35;69.22;;;;;;;29.73;27.35;102055.38;5000290;28;20053;-73
2023/06/05 09:48:43;;;;;;;178.60;67.10;;;;;;;29.80;27.25;102052.06;4998513;28;20025;-71
2023/06/05 09:51:13;;;;;;;184.90;69.38;;;;;;;29.27;27.35;102040.88;4990571;28;20018;-70
2023/06/05 09:53:42;;;;;;;177.70;67.32;;;;;;;29.41;27.87;102047.91;5002817;28;20392;-70
2023/06/05 09:56:18;;;;;;;178.02;68.03;;;;;;;29.82;26.19;102052.00;4998808;28;20033;-72
2023/06/05 09:58:49;;;;;;;182.60;67.38;;;;;;;29.93;26.61;102043.97;4973922;28;20027;-72
2023/06/05 10:01:22;;;;;;;178.30;66.25;;;;;;;28.60;28.79;102047.47;4961968;28;20022;-70
2023/06/05 10:03:59;;;;;;;179.60;66.72;;;;;;;27.53;30.53;102046.75;4994900;28;20030;-74
2023/06/05 10:06:28;;;;;;;180.18;68.40;;;;;;;27.00;30.70;102049.28;4972250;28;20037;-73
2023/06/05 10:08:57;;;;;;;178.95;65.70;;;;;;;26.52;31.92;102049.63;5001021;28;20041;-73
2023/06/05 10:11:24;;;;;;;194.88;69.07;;;;;;;26.28;32.64;102049.31;4988803;28;20022;-74
2023/06/05 10:13:50;;;;;;;180.63;67.43;;;;;;;25.88;33.26;102044.53;4999240;28;20057;-72
2023/06/05 10:16:19;;;;;;;193.85;67.53;;;;;;;25.58;34.17;102041.88;4996965;28;20490;-72
2023/06/05 10:18:49;;;;;;;180.20;66.85;;;;;;;25.25;34.03;102029.47;5000161;28;20022;-72
2023/06/05 10:21:16;;;;;;;179.70;66.22;;;;;;;25.07;34.91;102026.91;5011812;28;20026;-72
2023/06/05 10:23:51;;;;;;;179.77;66.55;;;;;;;24.73;35.24;102034.16;4986493;28;20022;-72
2023/06/05 10:26:40;;;;;;;178.85;67.70;;;;;;;24.53;35.32;102035.19;4980188;28;20073;-72
2023/06/05 10:29:33;;;;;;;183.07;67.78;;;;;;;24.26;37.12;102032.19;4968284;28;20027;-78
2023/06/05 10:32:02;;;;;;;183.57;66.93;;;;;;;24.06;37.42;102039.44;4986020;28;20036;-75
2023/06/05 10:34:47;;;;;;;184.40;67.68;;;;;;;23.82;38.10;102030.88;4980373;28;20053;-75
2023/06/05 10:37:28;;;;;;;;;;;;;;;23.56;38.15;102034.84;4991131;28;20036;-74
2023/06/05 10:39:54;;;;;;;206.05;68.10;;;;;;;23.43;38.25;102031.94;4983976;28;20012;-74
2023/06/05 10:42:26;;;;;;;185.80;68.10;;;;;;;23.28;38.87;102028.22;4990459;28;20109;-73
2023/06/05 10:44:52;;;;;;;185.63;68.65;;;;;;;23.18;39.08;102021.59;4987748;28;20030;-73
2023/06/05 10:47:33;;;;;;;180.73;66.85;;;;;;;23.05;39.47;102016.81;4991785;28;20033;-73
2023/06/05 10:50:16;;;;;;;185.73;86.20;;;;;;;22.92;40.09;102031.69;4995736;28;20073;-74
2023/06/05 10:52:42;;;;;;;181.63;70.40;;;;;;;22.84;39.91;102015.19;4997637;28;20029;-72
2023/06/05 10:55:08;;;;;;;180.23;66.80;;;;;;;22.66;40.63;102016.91;5004383;28;20103;-73
2023/06/05 10:57:55;;;;;;;196.63;68.45;;;;;;;22.54;41.27;102013.03;5007984;28;20030;-76
2023/06/05 11:00:21;;;;;;;209.65;68.18;;;;;;;22.41;40.82;102013.56;5009322;28;20058;-73
2023/06/05 11:02:48;;;;;;;199.93;69.38;;;;;;;22.36;40.72;102004.06;4991880;28;20121;-75